createdAt,value
2019-06-20T00:00:52.000Z,5.42
2019-06-20T00:03:20.836Z,8.98
2019-06-20T00:05:49.523Z,5.28
2019-06-20T00:08:18.270Z,4.90
2019-06-20T00:10:46.996Z,6.75
2019-06-20T00:13:15.582Z,7.15
2019-06-20T00:15:44.763Z,6.22
2019-06-20T00:18:13.529Z,5.47
2019-06-20T00:20:43.105Z,6.47
2019-06-20T00:23:11.767Z,5.08
2019-06-20T00:25:40.642Z,5.40
2019-06-20T00:28:09.391Z,4.00
2019-06-20T00:30:38.020Z,6.45
2019-06-20T00:33:06.948Z,5.03
2019-06-20T00:35:35.522Z,7.95
2019-06-20T00:38:04.127Z,8.28
2019-06-20T00:40:32.787Z,4.73
2019-06-20T00:43:16.344Z,6.20
2019-06-20T00:45:31.686Z,5.63
2019-06-20T00:48:00.398Z,4.78
2019-06-20T00:50:29.046Z,4.47
2019-06-20T00:52:57.716Z,4.30
2019-06-20T00:55:26.563Z,3.77
2019-06-20T00:57:55.121Z,4.67
2019-06-20T01:00:23.793Z,4.87
2019-06-20T01:02:52.384Z,6.23
2019-06-20T01:05:21.412Z,8.15
2019-06-20T01:07:50.104Z,6.00
2019-06-20T01:10:18.985Z,5.50
2019-06-20T01:12:47.603Z,5.03
2019-06-20T01:15:16.767Z,4.92
2019-06-20T01:17:45.493Z,6.97
2019-06-20T01:20:15.866Z,6.92
2019-06-20T01:22:44.532Z,5.62
2019-06-20T01:25:13.436Z,5.55
2019-06-20T01:27:42.148Z,5.27
2019-06-20T01:30:11.783Z,8.00
2019-06-20T01:32:40.588Z,8.08
2019-06-20T01:35:09.904Z,7.20
2019-06-20T01:37:38.899Z,5.55
2019-06-20T01:40:08.140Z,5.40
2019-06-20T01:42:36.781Z,6.33
2019-06-20T01:45:08.565Z,4.33
2019-06-20T01:47:37.309Z,6.62
2019-06-20T01:50:07.243Z,6.65
2019-06-20T01:52:36.022Z,5.30
2019-06-20T01:55:05.738Z,5.70
2019-06-20T01:57:34.606Z,5.55
2019-06-20T02:00:03.922Z,7.55
2019-06-20T02:02:32.773Z,5.65
2019-06-20T02:05:01.537Z,6.70
2019-06-20T02:07:30.551Z,6.58
2019-06-20T02:09:59.437Z,5.62
2019-06-20T02:12:27.964Z,7.00
2019-06-20T02:14:56.492Z,5.12
2019-06-20T02:17:25.038Z,5.53
2019-06-20T02:19:53.774Z,6.58
2019-06-20T02:22:22.381Z,7.85
2019-06-20T02:24:51.126Z,6.03
2019-06-20T02:27:20.938Z,5.35
2019-06-20T02:29:49.493Z,4.72
2019-06-20T02:32:18.267Z,5.60
2019-06-20T02:34:47.101Z,5.05
2019-06-20T02:37:15.770Z,7.33
2019-06-20T02:39:44.450Z,6.87
2019-06-20T02:42:13.279Z,5.92
2019-06-20T02:44:41.935Z,6.33
2019-06-20T02:47:10.890Z,5.58
2019-06-20T02:49:39.514Z,4.40
2019-06-20T02:52:08.835Z,5.08
2019-06-20T02:54:37.499Z,5.47
2019-06-20T02:57:06.069Z,7.30
2019-06-20T02:59:34.727Z,4.53
2019-06-20T03:02:03.327Z,5.37
2019-06-20T03:04:32.383Z,7.33
2019-06-20T03:07:01.415Z,4.55
2019-06-20T03:09:30.283Z,10.78
2019-06-20T03:11:59.046Z,7.28
2019-06-20T03:14:41.787Z,8.53
2019-06-20T03:16:59.653Z,6.35
2019-06-20T03:19:29.063Z,6.53
2019-06-20T03:21:58.320Z,7.25
2019-06-20T03:24:27.540Z,5.42
2019-06-20T03:26:57.481Z,6.00
2019-06-20T03:29:26.832Z,4.65
2019-06-20T03:31:56.316Z,8.28
2019-06-20T03:34:26.015Z,7.37
2019-06-20T03:36:55.549Z,3.92
2019-06-20T03:39:25.005Z,7.70
2019-06-20T03:41:54.834Z,6.78
2019-06-20T03:44:24.630Z,7.42
2019-06-20T03:46:53.760Z,6.65
2019-06-20T03:49:23.324Z,6.30
2019-06-20T03:51:52.572Z,7.63
2019-06-20T03:54:22.075Z,6.22
2019-06-20T03:56:51.650Z,7.87
2019-06-20T03:59:20.749Z,7.92
2019-06-20T04:01:50.406Z,8.03
2019-06-20T04:04:19.606Z,7.12
2019-06-20T04:06:49.505Z,9.85
2019-06-20T04:09:19.006Z,6.78
2019-06-20T04:11:48.316Z,4.85
2019-06-20T04:14:17.619Z,6.60
2019-06-20T04:16:46.853Z,5.08
2019-06-20T04:19:16.415Z,6.65
2019-06-20T04:21:45.487Z,6.80
2019-06-20T04:24:14.764Z,3.62
2019-06-20T04:26:44.042Z,6.92
2019-06-20T04:29:13.253Z,7.30
2019-06-20T04:31:42.759Z,6.50
2019-06-20T04:34:12.253Z,7.47
2019-06-20T04:36:42.026Z,5.93
2019-06-20T04:39:19.126Z,7.20
2019-06-20T04:41:42.748Z,8.28
2019-06-20T04:44:12.562Z,3.60
2019-06-20T04:46:52.586Z,10.10
2019-06-20T04:49:22.058Z,8.85
2019-06-20T04:51:51.485Z,6.00
2019-06-20T04:54:20.894Z,5.83
2019-06-20T04:56:50.507Z,5.87
2019-06-20T04:59:19.884Z,5.58
2019-06-20T05:01:49.249Z,7.40
2019-06-20T05:04:18.285Z,5.60
2019-06-20T05:06:50.459Z,7.28
2019-06-20T05:09:19.982Z,7.70
2019-06-20T05:11:49.364Z,6.40
2019-06-20T05:14:19.590Z,7.00
2019-06-20T05:16:49.135Z,6.40
2019-06-20T05:19:18.393Z,5.62
2019-06-20T05:21:48.106Z,7.37
2019-06-20T05:24:17.705Z,3.57
2019-06-20T05:26:47.137Z,4.70
2019-06-20T05:29:16.664Z,5.58
2019-06-20T05:31:46.200Z,6.40
2019-06-20T05:34:15.476Z,7.00
2019-06-20T05:36:44.689Z,10.60
2019-06-20T05:39:13.857Z,5.42
2019-06-20T05:41:43.251Z,7.63
2019-06-20T05:44:12.743Z,6.25
2019-06-20T05:46:43.005Z,5.65
2019-06-20T05:49:12.209Z,5.90
2019-06-20T05:51:41.826Z,5.60
2019-06-20T05:54:11.398Z,10.03
2019-06-20T05:56:40.708Z,5.50
2019-06-20T05:59:10.170Z,5.42
2019-06-20T06:01:39.798Z,3.90
2019-06-20T06:04:09.528Z,7.90
2019-06-20T06:06:38.993Z,7.12
2019-06-20T06:09:09.571Z,5.77
2019-06-20T06:11:39.460Z,8.38
2019-06-20T06:14:09.009Z,9.27
2019-06-20T06:16:38.408Z,8.75
2019-06-20T06:19:07.910Z,9.20
2019-06-20T06:21:37.400Z,8.93
2019-06-20T06:24:06.975Z,8.65
2019-06-20T06:26:36.043Z,5.55
2019-06-20T06:29:05.671Z,5.60
2019-06-20T06:31:35.120Z,6.95
2019-06-20T06:34:04.359Z,7.30
2019-06-20T06:36:33.630Z,6.30
2019-06-20T06:39:02.792Z,7.95
2019-06-20T06:41:31.931Z,6.58
2019-06-20T06:44:01.052Z,4.90
2019-06-20T06:46:43.677Z,5.92
2019-06-20T06:49:01.765Z,8.15
2019-06-20T06:51:31.316Z,6.05
2019-06-20T06:54:00.820Z,8.93
2019-06-20T06:56:30.163Z,7.60
2019-06-20T06:58:59.790Z,7.70
2019-06-20T07:01:29.357Z,4.60
2019-06-20T07:03:59.011Z,5.90
2019-06-20T07:06:28.181Z,7.67
2019-06-20T07:08:57.755Z,7.80
2019-06-20T07:11:27.385Z,5.92
2019-06-20T07:13:56.497Z,5.15
2019-06-20T07:16:25.918Z,6.12
2019-06-20T07:18:55.435Z,4.75
2019-06-20T07:21:25.128Z,6.53
2019-06-20T07:23:54.635Z,5.97
2019-06-20T07:26:24.195Z,6.53
2019-06-20T07:28:54.106Z,6.60
2019-06-20T07:31:23.656Z,7.78
2019-06-20T07:33:53.204Z,6.22
2019-06-20T07:36:22.406Z,5.53
2019-06-20T07:38:52.298Z,6.62
2019-06-20T07:41:21.763Z,6.63
2019-06-20T07:43:51.233Z,3.10
2019-06-20T07:46:20.667Z,9.70
2019-06-20T07:48:49.940Z,6.03
2019-06-20T07:51:19.484Z,5.35
2019-06-20T07:53:48.797Z,4.42
2019-06-20T07:56:17.960Z,10.68
2019-06-20T07:58:46.907Z,5.95
2019-06-20T08:01:16.057Z,4.97
2019-06-20T08:03:45.430Z,4.55
2019-06-20T08:06:14.635Z,4.75
2019-06-20T08:08:43.852Z,5.75
2019-06-20T08:11:13.188Z,4.28
2019-06-20T08:13:42.889Z,3.55
2019-06-20T08:16:12.326Z,3.08
2019-06-20T08:18:42.185Z,4.83
2019-06-20T08:21:12.136Z,2.70
2019-06-20T08:23:41.390Z,3.40
2019-06-20T08:26:11.039Z,2.93
2019-06-20T08:28:40.505Z,3.60
2019-06-20T08:31:10.123Z,5.00
2019-06-20T08:33:39.543Z,3.98
2019-06-20T08:36:09.403Z,4.90
2019-06-20T08:38:38.677Z,5.87
2019-06-20T08:41:07.707Z,4.28
2019-06-20T08:43:37.033Z,5.40
2019-06-20T08:46:10.066Z,4.30
2019-06-20T08:48:36.959Z,7.15
2019-06-20T08:51:06.626Z,10.37
2019-06-20T08:53:36.010Z,6.37
2019-06-20T08:56:05.533Z,6.03
2019-06-20T08:58:35.081Z,2.90
2019-06-20T09:03:34.692Z,4.50
2019-06-20T09:06:04.418Z,3.83
2019-06-20T09:08:33.780Z,4.53
2019-06-20T09:11:04.069Z,4.23
2019-06-20T09:13:33.561Z,4.72
2019-06-20T09:16:03.315Z,3.40
2019-06-20T09:18:32.849Z,3.67
2019-06-20T09:21:02.440Z,4.37
2019-06-20T09:23:31.869Z,5.47
2019-06-20T09:26:01.974Z,4.25
2019-06-20T09:28:31.307Z,4.20
2019-06-20T09:31:00.484Z,3.98
2019-06-20T09:33:29.527Z,3.47
2019-06-20T09:35:59.575Z,4.60
2019-06-20T09:38:29.428Z,4.60
2019-06-20T09:40:59.191Z,5.60
2019-06-20T09:43:29.250Z,6.20
2019-06-20T09:45:58.683Z,5.42
2019-06-20T09:48:28.220Z,7.35
2019-06-20T09:50:58.555Z,6.37
2019-06-20T09:53:28.189Z,5.40
2019-06-20T09:55:57.820Z,6.03
2019-06-20T09:58:27.771Z,5.03
2019-06-20T10:00:57.468Z,6.20
2019-06-20T10:03:26.880Z,6.78
2019-06-20T10:05:56.710Z,6.30
2019-06-20T10:08:26.348Z,6.83
2019-06-20T10:10:56.286Z,4.42
2019-06-20T10:13:25.809Z,8.25
2019-06-20T10:15:55.660Z,3.27
2019-06-20T10:18:25.132Z,4.90
2019-06-20T10:20:54.598Z,6.33
2019-06-20T10:23:24.433Z,4.37
2019-06-20T10:25:53.759Z,4.03
2019-06-20T10:28:23.105Z,6.20
2019-06-20T10:30:53.428Z,8.50
2019-06-20T10:33:23.110Z,7.03
2019-06-20T10:35:52.696Z,4.45
2019-06-20T10:38:22.214Z,7.17
2019-06-20T10:40:52.059Z,4.12
2019-06-20T10:43:21.586Z,6.10
2019-06-20T10:45:50.998Z,5.97
2019-06-20T10:48:20.462Z,4.05
2019-06-20T10:50:49.860Z,5.92
2019-06-20T10:53:19.622Z,8.23
2019-06-20T10:55:49.057Z,3.95
2019-06-20T10:58:18.354Z,6.12
2019-06-20T11:00:48.370Z,7.45
2019-06-20T11:03:18.086Z,4.37
2019-06-20T11:05:48.151Z,3.77
2019-06-20T11:08:17.448Z,4.60
2019-06-20T11:10:47.198Z,4.25
2019-06-20T11:13:16.446Z,4.30
2019-06-20T11:15:46.221Z,3.58
2019-06-20T11:18:15.744Z,4.50
2019-06-20T11:20:46.579Z,2.83
2019-06-20T11:23:16.063Z,2.05
2019-06-20T11:25:46.638Z,2.70
2019-06-20T11:28:16.202Z,2.67
2019-06-20T11:30:55.991Z,2.60
2019-06-20T11:33:16.934Z,5.60
2019-06-20T11:35:46.342Z,3.45
2019-06-20T11:38:15.451Z,2.62
2019-06-20T11:40:44.593Z,2.67
2019-06-20T11:43:15.242Z,2.22
2019-06-20T11:45:47.298Z,2.80
2019-06-20T11:48:17.020Z,3.47
2019-06-20T11:50:46.872Z,3.10
2019-06-20T11:53:16.498Z,2.85
2019-06-20T11:55:45.685Z,1.55
2019-06-20T11:58:15.028Z,3.15
2019-06-20T12:00:44.413Z,3.25
2019-06-20T12:03:13.707Z,3.60
2019-06-20T12:05:43.261Z,2.12
2019-06-20T12:08:12.386Z,1.50
2019-06-20T12:10:43.083Z,3.58
2019-06-20T12:13:12.297Z,2.80
2019-06-20T12:15:42.759Z,4.33
2019-06-20T12:18:12.276Z,2.80
2019-06-20T12:20:42.813Z,3.97
2019-06-20T12:23:12.502Z,4.30
2019-06-20T12:25:42.646Z,2.62
2019-06-20T12:28:12.643Z,3.87
2019-06-20T12:30:43.459Z,3.13
2019-06-20T12:33:14.080Z,4.63
2019-06-20T12:35:44.497Z,2.80
2019-06-20T12:38:15.237Z,3.45
2019-06-20T12:40:46.161Z,1.52
2019-06-20T12:45:44.291Z,2.27
2019-06-20T12:48:14.075Z,3.83
2019-06-20T12:50:43.345Z,2.93
2019-06-20T12:53:12.835Z,0.85
2019-06-20T12:55:42.431Z,1.52
2019-06-20T12:58:11.479Z,3.12
2019-06-20T13:00:41.672Z,4.80
2019-06-20T13:05:40.133Z,4.70
2019-06-20T13:10:40.243Z,1.30
2019-06-20T13:13:09.635Z,0.95
2019-06-20T13:15:39.043Z,1.17
2019-06-20T13:18:09.634Z,1.10
2019-06-20T13:20:40.534Z,0.75
2019-06-20T13:23:09.923Z,3.27
2019-06-20T13:25:40.878Z,1.12
2019-06-20T13:28:10.096Z,1.32
2019-06-20T13:30:40.275Z,1.10
2019-06-20T13:33:10.254Z,4.47
2019-06-20T13:35:41.584Z,5.25
2019-06-20T13:38:10.829Z,1.87
2019-06-20T13:40:41.379Z,0.78
2019-06-20T13:43:10.958Z,3.12
2019-06-20T13:45:41.193Z,0.72
2019-06-20T13:48:11.358Z,2.08
2019-06-20T13:50:41.914Z,0.68
2019-06-20T13:55:41.210Z,0.50
2019-06-20T13:58:11.243Z,0.85
2019-06-20T14:00:42.825Z,2.20
2019-06-20T14:03:12.389Z,0.40
2019-06-20T14:05:42.832Z,3.98
2019-06-20T14:08:12.644Z,1.75
2019-06-20T14:10:44.123Z,0.65
2019-06-20T14:13:19.233Z,0.65
2019-06-20T14:15:44.913Z,0.47
2019-06-20T14:18:15.476Z,1.70
2019-06-20T14:20:45.055Z,0.30
2019-06-20T14:25:44.155Z,1.22
2019-06-20T14:28:13.616Z,0.40
2019-06-20T14:30:44.467Z,1.57
2019-06-20T14:33:14.117Z,2.20
2019-06-20T14:35:45.344Z,1.12
2019-06-20T14:38:14.815Z,2.20
2019-06-20T14:40:45.301Z,1.30
2019-06-20T14:43:14.920Z,1.37
2019-06-20T14:45:45.537Z,0.50
2019-06-20T14:48:15.619Z,4.00
2019-06-20T14:50:46.461Z,1.07
2019-06-20T14:55:46.014Z,3.65
2019-06-20T14:58:16.033Z,1.75
2019-06-20T15:00:46.974Z,2.30
2019-06-20T15:03:16.458Z,3.15
2019-06-20T15:05:46.592Z,1.98
2019-06-20T15:08:16.831Z,4.15
2019-06-20T15:10:48.071Z,3.02
2019-06-20T15:13:17.505Z,1.70
2019-06-20T15:15:47.907Z,2.62
2019-06-20T15:18:17.645Z,2.45
2019-06-20T15:20:48.299Z,2.37
2019-06-20T15:23:17.659Z,4.40
2019-06-20T15:25:48.752Z,6.15
2019-06-20T15:30:47.698Z,2.58
2019-06-20T15:33:17.220Z,2.52
2019-06-20T15:35:47.247Z,3.27
2019-06-20T15:38:17.245Z,3.90
2019-06-20T15:40:47.881Z,3.95
2019-06-20T15:43:17.336Z,3.50
2019-06-20T15:45:48.373Z,5.35
2019-06-20T15:48:17.310Z,8.20
2019-06-20T15:50:46.919Z,4.37
2019-06-20T15:53:16.461Z,4.20
2019-06-20T15:55:45.731Z,5.00
2019-06-20T15:58:15.014Z,3.60
2019-06-20T16:00:44.213Z,4.92
2019-06-20T16:03:14.797Z,2.80
2019-06-20T16:05:44.741Z,5.90
2019-06-20T16:08:14.276Z,3.30
2019-06-20T16:10:43.593Z,5.10
2019-06-20T16:13:12.737Z,4.00
2019-06-20T16:15:42.439Z,3.45
2019-06-20T16:18:11.736Z,3.55
2019-06-20T16:20:41.245Z,4.20
2019-06-20T16:23:10.770Z,4.37
2019-06-20T16:25:39.763Z,3.12
2019-06-20T16:28:08.936Z,3.40
2019-06-20T16:30:38.530Z,4.05
2019-06-20T16:33:07.727Z,3.10
2019-06-20T16:35:37.004Z,3.37
2019-06-20T16:38:06.369Z,3.08
2019-06-20T16:40:47.225Z,6.47
2019-06-20T16:43:16.828Z,2.72
2019-06-20T16:45:45.957Z,2.50
2019-06-20T16:48:15.391Z,2.77
2019-06-20T16:50:44.675Z,2.47
2019-06-20T16:53:14.144Z,1.33
2019-06-20T16:55:43.566Z,2.30
2019-06-20T16:58:13.078Z,3.10
2019-06-20T17:00:42.770Z,2.05
2019-06-20T17:03:12.640Z,3.17
2019-06-20T17:05:42.155Z,1.77
2019-06-20T17:08:11.362Z,1.82
2019-06-20T17:10:40.775Z,3.50
2019-06-20T17:13:10.251Z,2.20
2019-06-20T17:15:39.936Z,1.95
2019-06-20T17:18:09.113Z,1.50
2019-06-20T17:20:38.833Z,2.17
2019-06-20T17:23:08.447Z,1.80
2019-06-20T17:25:37.900Z,2.98
2019-06-20T17:28:07.293Z,3.27
2019-06-20T17:30:37.000Z,2.92
2019-06-20T17:33:06.490Z,2.02
2019-06-20T17:35:35.967Z,3.17
2019-06-20T17:38:05.699Z,2.35
2019-06-20T17:40:34.923Z,3.20
2019-06-20T17:43:04.521Z,2.08
2019-06-20T17:45:33.892Z,2.47
2019-06-20T17:48:03.165Z,1.92
2019-06-20T17:50:32.228Z,2.72
2019-06-20T17:53:01.268Z,1.92
2019-06-20T17:55:30.550Z,1.90
2019-06-20T17:57:59.993Z,1.98
2019-06-20T18:00:29.524Z,1.90
2019-06-20T18:02:58.977Z,2.72
2019-06-20T18:05:28.228Z,1.70
2019-06-20T18:07:57.238Z,2.77
2019-06-20T18:10:26.795Z,3.47
2019-06-20T18:12:56.087Z,2.70
2019-06-20T18:15:26.862Z,4.62
2019-06-20T18:17:56.233Z,1.65
2019-06-20T18:20:26.060Z,2.55
2019-06-20T18:22:55.081Z,2.90
2019-06-20T18:25:24.605Z,3.65
2019-06-20T18:27:53.578Z,2.90
2019-06-20T18:30:25.704Z,2.83
2019-06-20T18:32:55.364Z,3.50
2019-06-20T18:35:24.654Z,2.92
2019-06-20T18:37:53.961Z,2.87
2019-06-20T18:40:23.143Z,5.53
2019-06-20T18:42:52.333Z,3.30
2019-06-20T18:45:21.597Z,5.70
2019-06-20T18:47:50.876Z,2.12
2019-06-20T18:50:20.069Z,1.55
2019-06-20T18:52:52.495Z,3.05
2019-06-20T18:55:20.603Z,5.22
2019-06-20T18:57:49.657Z,2.33
2019-06-20T19:00:33.593Z,3.20
2019-06-20T19:02:50.775Z,3.55
2019-06-20T19:05:20.459Z,2.42
2019-06-20T19:07:49.757Z,3.62
2019-06-20T19:10:21.743Z,5.60
2019-06-20T19:12:50.997Z,3.35
2019-06-20T19:15:21.912Z,4.95
2019-06-20T19:17:51.348Z,3.12
2019-06-20T19:20:20.688Z,2.23
2019-06-20T19:22:50.333Z,4.60
2019-06-20T19:25:20.071Z,5.23
2019-06-20T19:27:49.433Z,2.42
2019-06-20T19:30:19.332Z,2.30
2019-06-20T19:32:48.761Z,2.87
2019-06-20T19:35:18.298Z,2.20
2019-06-20T19:37:47.375Z,3.95
2019-06-20T19:40:18.588Z,6.37
2019-06-20T19:42:47.688Z,3.43
2019-06-20T19:45:16.879Z,2.50
2019-06-20T19:47:46.095Z,4.47
2019-06-20T19:50:15.356Z,3.08
2019-06-20T19:52:44.527Z,4.30
2019-06-20T19:55:14.042Z,2.95
2019-06-20T19:57:43.158Z,3.17
2019-06-20T20:00:12.982Z,4.08
2019-06-20T20:02:42.155Z,4.03
2019-06-20T20:05:19.033Z,3.60
2019-06-20T20:07:41.669Z,2.90
2019-06-20T20:10:10.943Z,5.92
2019-06-20T20:12:39.682Z,3.77
2019-06-20T20:15:12.540Z,4.17
2019-06-20T20:17:41.332Z,2.87
2019-06-20T20:20:10.884Z,4.83
2019-06-20T20:22:39.613Z,2.80
2019-06-20T20:25:09.032Z,3.37
2019-06-20T20:27:37.724Z,6.72
2019-06-20T20:30:10.695Z,4.73
2019-06-20T20:32:39.686Z,4.55
2019-06-20T20:35:08.531Z,4.30
2019-06-20T20:37:37.314Z,1.90
2019-06-20T20:40:08.437Z,4.47
2019-06-20T20:42:37.212Z,5.55
2019-06-20T20:45:07.254Z,2.67
2019-06-20T20:47:35.904Z,3.17
2019-06-20T20:50:06.161Z,6.35
2019-06-20T20:52:34.773Z,3.47
2019-06-20T20:55:04.501Z,4.65
2019-06-20T20:57:33.230Z,3.10
2019-06-20T21:00:02.244Z,4.17
2019-06-20T21:02:30.892Z,3.80
2019-06-20T21:04:59.446Z,3.07
2019-06-20T21:07:28.166Z,3.90
2019-06-20T21:09:56.832Z,3.17
2019-06-20T21:12:25.497Z,3.67
2019-06-20T21:14:54.128Z,3.90
2019-06-20T21:17:22.684Z,4.43
2019-06-20T21:19:51.310Z,4.05
2019-06-20T21:22:20.039Z,3.90
2019-06-20T21:24:48.630Z,4.20
2019-06-20T21:27:17.316Z,3.17
2019-06-20T21:29:45.960Z,4.87
2019-06-20T21:32:14.786Z,3.87
2019-06-20T21:34:43.337Z,3.13
2019-06-20T21:37:12.076Z,3.70
2019-06-20T21:39:40.595Z,4.42
2019-06-20T21:42:09.264Z,4.08
2019-06-20T21:44:37.845Z,4.17
2019-06-20T21:47:06.572Z,6.10
2019-06-20T21:49:35.207Z,3.62
2019-06-20T21:52:03.954Z,5.75
2019-06-20T21:54:32.587Z,4.55
2019-06-20T21:57:01.293Z,5.03
2019-06-20T21:59:29.962Z,3.77
2019-06-20T22:01:58.644Z,5.15
2019-06-20T22:04:27.285Z,5.40
2019-06-20T22:06:56.099Z,5.15
2019-06-20T22:09:24.891Z,5.05
2019-06-20T22:11:53.559Z,4.20
2019-06-20T22:14:22.126Z,3.83
2019-06-20T22:16:50.754Z,5.08
2019-06-20T22:19:19.357Z,4.77
2019-06-20T22:21:47.956Z,4.85
2019-06-20T22:24:16.567Z,5.03
2019-06-20T22:26:45.177Z,4.85
2019-06-20T22:29:13.899Z,6.12
2019-06-20T22:31:42.622Z,4.20
2019-06-20T22:34:11.334Z,4.55
2019-06-20T22:36:40.824Z,4.30
2019-06-20T22:39:09.698Z,5.97
2019-06-20T22:41:38.367Z,6.67
2019-06-20T22:44:06.884Z,7.67
2019-06-20T22:46:35.497Z,4.97
2019-06-20T22:49:04.184Z,6.65
2019-06-20T22:51:32.783Z,4.05
2019-06-20T22:54:01.500Z,5.15
2019-06-20T22:56:30.151Z,3.98
2019-06-20T22:58:58.773Z,3.08
2019-06-20T23:01:27.586Z,6.22
2019-06-20T23:03:56.442Z,4.28
2019-06-20T23:06:25.144Z,4.05
2019-06-20T23:08:53.705Z,5.75
2019-06-20T23:11:22.457Z,6.37
2019-06-20T23:13:51.074Z,5.33
2019-06-20T23:16:19.837Z,6.95
2019-06-20T23:18:48.480Z,9.35
2019-06-20T23:21:17.296Z,4.80
2019-06-20T23:23:45.961Z,6.28
2019-06-20T23:26:14.981Z,4.15
2019-06-20T23:28:45.229Z,5.20
2019-06-20T23:31:13.887Z,6.85
2019-06-20T23:33:42.559Z,5.80
2019-06-20T23:36:11.334Z,3.22
2019-06-20T23:38:39.973Z,7.42
2019-06-20T23:41:08.548Z,5.70
2019-06-20T23:43:37.226Z,5.42
2019-06-20T23:46:05.851Z,6.50
2019-06-20T23:48:34.543Z,8.03
2019-06-20T23:51:03.287Z,3.52
2019-06-20T23:53:32.122Z,5.12
2019-06-20T23:56:00.753Z,8.55
2019-06-20T23:58:29.434Z,8.85
